createdAt,value
2018-09-15T00:00:39.589Z,17.97
2018-09-15T00:03:08.523Z,17.83
2018-09-15T00:05:37.428Z,16.33
2018-09-15T00:08:06.364Z,16.80
2018-09-15T00:10:35.631Z,16.77
2018-09-15T00:13:04.818Z,17.87
2018-09-15T00:15:33.773Z,17.00
2018-09-15T00:18:04.724Z,16.97
2018-09-15T00:20:33.908Z,16.57
2018-09-15T00:23:02.776Z,17.40
2018-09-15T00:25:31.560Z,17.97
2018-09-15T00:28:00.395Z,16.80
2018-09-15T00:30:29.210Z,17.27
2018-09-15T00:32:58.382Z,18.57
2018-09-15T00:35:27.394Z,18.00
2018-09-15T00:37:56.361Z,20.47
2018-09-15T00:40:25.264Z,19.67
2018-09-15T00:42:55.068Z,19.90
2018-09-15T00:45:23.944Z,19.77
2018-09-15T00:47:52.861Z,17.47
2018-09-15T00:50:21.741Z,18.60
2018-09-15T00:52:50.683Z,17.60
2018-09-15T00:55:19.462Z,17.53
2018-09-15T00:57:48.459Z,17.30
2018-09-15T01:00:18.006Z,18.73
2018-09-15T01:02:46.941Z,18.27
2018-09-15T01:05:15.883Z,18.50
2018-09-15T01:07:44.838Z,17.67
2018-09-15T01:10:14.172Z,18.37
2018-09-15T01:12:43.354Z,16.85
2018-09-15T01:15:12.161Z,18.37
2018-09-15T01:17:41.120Z,19.63
2018-09-15T01:20:10.158Z,18.77
2018-09-15T01:22:39.049Z,17.97
2018-09-15T01:25:07.802Z,19.27
2018-09-15T01:27:36.601Z,19.10
2018-09-15T01:30:05.694Z,19.23
2018-09-15T01:32:34.508Z,18.67
2018-09-15T01:35:03.333Z,21.67
2018-09-15T01:37:32.480Z,21.33
2018-09-15T01:40:01.390Z,20.20
2018-09-15T01:42:30.259Z,20.30
2018-09-15T01:44:59.104Z,18.20
2018-09-15T01:47:28.066Z,21.03
2018-09-15T01:49:56.888Z,20.90
2018-09-15T01:52:25.922Z,18.77
2018-09-15T01:54:54.744Z,22.27
2018-09-15T01:57:23.569Z,21.40
2018-09-15T01:59:52.554Z,20.80
2018-09-15T02:02:21.380Z,21.47
2018-09-15T02:04:50.198Z,20.83
2018-09-15T02:07:19.139Z,21.57
2018-09-15T02:09:47.924Z,22.63
2018-09-15T02:12:16.846Z,19.83
2018-09-15T02:14:45.662Z,22.03
2018-09-15T02:17:14.566Z,19.47
2018-09-15T02:19:43.478Z,17.13
2018-09-15T02:22:12.338Z,17.97
2018-09-15T02:24:41.343Z,18.93
2018-09-15T02:27:10.176Z,18.33
2018-09-15T02:29:38.904Z,21.83
2018-09-15T02:32:07.742Z,20.87
2018-09-15T02:34:36.531Z,22.07
2018-09-15T02:37:05.758Z,22.93
2018-09-15T02:39:34.616Z,22.10
2018-09-15T02:42:03.726Z,20.73
2018-09-15T02:44:32.530Z,22.73
2018-09-15T02:47:01.349Z,22.17
2018-09-15T02:49:30.367Z,21.10
2018-09-15T02:51:59.291Z,21.00
2018-09-15T02:54:28.224Z,20.40
2018-09-15T02:56:57.084Z,19.00
2018-09-15T02:59:26.177Z,20.17
2018-09-15T03:01:55.156Z,19.80
2018-09-15T03:04:24.033Z,19.83
2018-09-15T03:06:52.953Z,18.37
2018-09-15T03:09:21.751Z,18.70
2018-09-15T03:11:50.926Z,20.63
2018-09-15T03:14:25.637Z,20.70
2018-09-15T03:16:54.600Z,19.33
2018-09-15T03:19:24.770Z,18.53
2018-09-15T03:21:53.686Z,18.57
2018-09-15T03:24:22.579Z,20.77
2018-09-15T03:26:51.543Z,22.17
2018-09-15T03:29:20.445Z,22.13
2018-09-15T03:31:49.319Z,22.13
2018-09-15T03:34:18.826Z,22.23
2018-09-15T03:36:47.819Z,21.70
2018-09-15T03:39:16.541Z,22.13
2018-09-15T03:41:45.606Z,22.33
2018-09-15T03:44:14.408Z,21.43
2018-09-15T03:47:01.861Z,19.90
2018-09-15T03:49:30.717Z,19.37
2018-09-15T03:51:59.637Z,18.93
2018-09-15T03:54:28.489Z,18.70
2018-09-15T03:56:57.797Z,18.47
2018-09-15T03:59:26.727Z,21.60
2018-09-15T04:01:56.597Z,20.97
2018-09-15T04:04:25.310Z,21.43
2018-09-15T04:06:54.186Z,20.80
2018-09-15T04:09:23.401Z,20.77
2018-09-15T04:11:52.357Z,19.60
2018-09-15T04:14:21.215Z,21.20
2018-09-15T04:16:50.113Z,18.37
2018-09-15T04:19:18.923Z,20.17
2018-09-15T04:21:48.061Z,16.90
2018-09-15T04:24:16.967Z,18.30
2018-09-15T04:26:45.896Z,18.00
2018-09-15T04:29:14.738Z,17.60
2018-09-15T04:31:43.589Z,19.03
2018-09-15T04:34:13.065Z,18.37
2018-09-15T04:36:41.959Z,20.83
2018-09-15T04:39:12.840Z,18.83
2018-09-15T04:41:42.157Z,17.90
2018-09-15T04:44:11.389Z,19.33
2018-09-15T04:46:40.268Z,20.93
2018-09-15T04:49:09.029Z,20.27
2018-09-15T04:51:37.848Z,19.33
2018-09-15T04:54:06.755Z,20.67
2018-09-15T04:56:35.697Z,20.67
2018-09-15T04:59:04.689Z,21.20
2018-09-15T05:01:33.729Z,21.50
2018-09-15T05:04:02.555Z,21.10
2018-09-15T05:06:31.544Z,19.93
2018-09-15T05:09:00.309Z,20.13
2018-09-15T05:11:29.347Z,20.53
2018-09-15T05:13:58.263Z,19.70
2018-09-15T05:16:27.125Z,19.67
2018-09-15T05:18:55.936Z,19.57
2018-09-15T05:21:25.146Z,18.83
2018-09-15T05:23:54.059Z,18.10
2018-09-15T05:26:22.837Z,17.33
2018-09-15T05:28:51.920Z,18.07
2018-09-15T05:31:20.746Z,17.40
2018-09-15T05:33:49.663Z,16.70
2018-09-15T05:36:19.731Z,16.57
2018-09-15T05:38:48.564Z,15.77
2018-09-15T05:41:17.513Z,14.30
2018-09-15T05:43:46.577Z,15.60
2018-09-15T05:46:15.336Z,15.17
2018-09-15T05:48:44.231Z,15.30
2018-09-15T05:51:13.035Z,13.87
2018-09-15T05:53:41.917Z,14.67
2018-09-15T05:56:10.862Z,14.47
2018-09-15T05:58:39.778Z,15.00
2018-09-15T06:01:08.724Z,15.33
2018-09-15T06:03:38.520Z,14.47
2018-09-15T06:06:07.391Z,15.27
2018-09-15T06:08:36.264Z,14.73
2018-09-15T06:11:05.325Z,13.73
2018-09-15T06:13:34.654Z,13.53
2018-09-15T06:16:03.682Z,13.63
2018-09-15T06:18:32.696Z,13.57
2018-09-15T06:21:01.666Z,13.17
2018-09-15T06:23:30.631Z,12.97
2018-09-15T06:25:59.486Z,13.10
2018-09-15T06:28:28.351Z,12.73
2018-09-15T06:30:57.292Z,12.57
2018-09-15T06:33:27.213Z,12.27
2018-09-15T06:35:56.053Z,12.27
2018-09-15T06:38:25.036Z,11.67
2018-09-15T06:40:53.913Z,12.50
2018-09-15T06:43:22.758Z,12.90
2018-09-15T06:45:51.803Z,12.50
2018-09-15T06:48:20.580Z,11.83
2018-09-15T06:50:49.528Z,11.80
2018-09-15T06:53:18.500Z,11.87
2018-09-15T06:55:47.377Z,12.00
2018-09-15T06:58:16.474Z,11.63
2018-09-15T07:00:45.237Z,11.50
2018-09-15T07:03:14.309Z,11.93
2018-09-15T07:05:43.431Z,10.90
2018-09-15T07:08:19.092Z,11.80
2018-09-15T07:10:47.987Z,12.07
2018-09-15T07:13:16.803Z,12.10
2018-09-15T07:15:45.716Z,12.27
2018-09-15T07:18:14.735Z,12.57
2018-09-15T07:20:43.758Z,12.53
2018-09-15T07:23:12.641Z,12.00
2018-09-15T07:25:41.433Z,11.90
2018-09-15T07:28:10.333Z,10.57
2018-09-15T07:30:39.202Z,9.60
2018-09-15T07:33:07.994Z,9.80
2018-09-15T07:35:36.914Z,9.20
2018-09-15T07:38:05.947Z,7.77
2018-09-15T07:40:34.830Z,9.10
2018-09-15T07:43:03.604Z,7.67
2018-09-15T07:45:32.421Z,8.43
2018-09-15T07:48:01.219Z,7.03
2018-09-15T07:50:30.180Z,7.50
2018-09-15T07:52:59.004Z,8.67
2018-09-15T07:55:27.870Z,7.03
2018-09-15T07:57:56.999Z,6.70
2018-09-15T08:00:26.007Z,6.10
2018-09-15T08:02:56.920Z,6.23
2018-09-15T08:05:27.070Z,6.67
2018-09-15T08:07:56.140Z,6.17
2018-09-15T08:10:30.572Z,5.40
2018-09-15T08:12:59.894Z,5.70
2018-09-15T08:15:29.005Z,5.97
2018-09-15T08:17:58.080Z,6.20
2018-09-15T08:20:30.966Z,5.93
2018-09-15T08:23:00.184Z,5.10
2018-09-15T08:25:29.084Z,5.13
2018-09-15T08:27:58.221Z,5.30
2018-09-15T08:30:27.213Z,6.60
2018-09-15T08:32:56.366Z,5.80
2018-09-15T08:35:25.246Z,5.37
2018-09-15T08:37:54.266Z,5.40
2018-09-15T08:40:23.110Z,5.50
2018-09-15T08:42:52.062Z,5.57
2018-09-15T08:45:21.444Z,5.00
2018-09-15T08:47:50.733Z,5.83
2018-09-15T08:50:20.783Z,5.40
2018-09-15T08:52:49.674Z,6.07
2018-09-15T08:55:18.605Z,5.80
2018-09-15T08:57:52.338Z,5.93
2018-09-15T09:00:21.497Z,5.50
2018-09-15T09:02:50.406Z,4.80
2018-09-15T09:05:19.256Z,5.47
2018-09-15T09:08:04.992Z,4.73
2018-09-15T09:10:34.148Z,5.13
2018-09-15T09:13:02.948Z,5.17
2018-09-15T09:15:31.880Z,5.90
2018-09-15T09:18:04.566Z,5.30
2018-09-15T09:21:20.174Z,4.60
2018-09-15T09:23:51.451Z,4.47
2018-09-15T09:26:20.503Z,4.50
2018-09-15T09:28:49.421Z,4.80
2018-09-15T09:31:18.296Z,4.37
2018-09-15T09:33:47.306Z,4.13
2018-09-15T09:36:16.270Z,4.40
2018-09-15T09:38:45.180Z,4.37
2018-09-15T09:41:14.307Z,4.23
2018-09-15T09:43:43.200Z,4.70
2018-09-15T09:46:18.102Z,4.73
2018-09-15T09:48:47.047Z,3.83
2018-09-15T09:51:15.872Z,4.60
2018-09-15T09:53:44.678Z,4.17
2018-09-15T09:56:13.490Z,3.83
2018-09-15T09:58:42.556Z,3.80
2018-09-15T10:01:16.833Z,3.50
2018-09-15T10:03:47.462Z,4.10
2018-09-15T10:06:16.823Z,3.57
2018-09-15T10:08:45.696Z,4.60
2018-09-15T10:11:15.722Z,4.50
2018-09-15T10:13:44.577Z,4.03
2018-09-15T10:16:13.763Z,4.40
2018-09-15T10:18:42.676Z,3.70
2018-09-15T10:21:11.888Z,3.63
2018-09-15T10:23:40.844Z,3.47
2018-09-15T10:26:09.755Z,3.53
2018-09-15T10:28:39.433Z,3.23
2018-09-15T10:31:08.182Z,2.97
2018-09-15T10:33:37.058Z,3.10
2018-09-15T10:36:06.138Z,3.30
2018-09-15T10:38:35.084Z,3.27
2018-09-15T10:41:03.998Z,3.33
2018-09-15T10:43:33.047Z,2.93
2018-09-15T10:46:02.019Z,3.40
2018-09-15T10:48:30.849Z,3.00
2018-09-15T10:50:59.655Z,3.63
2018-09-15T10:53:28.522Z,3.50
2018-09-15T10:55:57.466Z,3.08
2018-09-15T10:58:26.287Z,3.30
2018-09-15T11:00:55.325Z,3.30
2018-09-15T11:03:52.583Z,2.93
2018-09-15T11:06:21.482Z,2.80
2018-09-15T11:08:50.298Z,3.43
2018-09-15T11:11:19.148Z,3.00
2018-09-15T11:13:48.083Z,3.10
2018-09-15T11:16:16.844Z,3.03
2018-09-15T11:18:45.779Z,3.20
2018-09-15T11:21:14.860Z,3.00
2018-09-15T11:23:43.752Z,3.17
2018-09-15T11:26:12.702Z,2.80
2018-09-15T11:28:42.110Z,3.20
2018-09-15T11:31:10.982Z,2.50
2018-09-15T11:33:40.054Z,2.70
2018-09-15T11:36:08.972Z,2.80
2018-09-15T11:38:38.117Z,2.90
2018-09-15T11:41:06.971Z,3.50
2018-09-15T11:43:35.823Z,3.17
2018-09-15T11:46:04.698Z,3.70
2018-09-15T11:48:34.052Z,3.73
2018-09-15T11:51:02.934Z,3.70
2018-09-15T11:53:32.203Z,3.30
2018-09-15T11:56:01.489Z,3.30
2018-09-15T11:58:30.347Z,3.00
2018-09-15T12:01:01.485Z,3.03
2018-09-15T12:03:30.724Z,3.40
2018-09-15T12:05:59.811Z,2.67
2018-09-15T12:08:28.753Z,2.80
2018-09-15T12:10:58.312Z,2.67
2018-09-15T12:13:27.813Z,3.10
2018-09-15T12:15:57.516Z,2.67
2018-09-15T12:18:27.082Z,3.67
2018-09-15T12:20:56.049Z,3.37
2018-09-15T12:23:25.329Z,3.30
2018-09-15T12:25:55.040Z,3.10
2018-09-15T12:28:23.900Z,3.02
2018-09-15T12:30:53.014Z,3.22
2018-09-15T12:33:22.008Z,2.87
2018-09-15T12:35:50.797Z,2.95
2018-09-15T12:38:19.757Z,2.92
2018-09-15T12:40:48.625Z,2.62
2018-09-15T12:43:17.469Z,2.40
2018-09-15T12:45:46.385Z,2.40
2018-09-15T12:48:15.270Z,2.47
2018-09-15T12:50:44.155Z,2.50
2018-09-15T12:53:13.090Z,2.40
2018-09-15T12:55:42.055Z,2.58
2018-09-15T12:58:11.211Z,2.65
2018-09-15T13:00:40.455Z,3.00
2018-09-15T13:03:09.493Z,2.60
2018-09-15T13:05:38.313Z,2.60
2018-09-15T13:08:07.307Z,2.62
2018-09-15T13:10:36.062Z,2.47
2018-09-15T13:13:04.953Z,2.60
2018-09-15T13:15:34.591Z,2.58
2018-09-15T13:18:03.483Z,2.47
2018-09-15T13:20:32.945Z,2.33
2018-09-15T13:23:01.981Z,2.50
2018-09-15T13:25:31.031Z,2.40
2018-09-15T13:28:00.635Z,2.47
2018-09-15T13:30:29.490Z,2.40
2018-09-15T13:32:58.373Z,2.58
2018-09-15T13:35:27.395Z,2.10
2018-09-15T13:37:56.640Z,2.37
2018-09-15T13:40:25.451Z,2.02
2018-09-15T13:42:54.175Z,2.20
2018-09-15T13:45:23.025Z,2.40
2018-09-15T13:47:51.833Z,2.80
2018-09-15T13:50:20.649Z,2.40
2018-09-15T13:52:49.433Z,2.60
2018-09-15T13:55:18.368Z,2.42
2018-09-15T13:57:47.195Z,2.52
2018-09-15T14:00:16.097Z,2.37
2018-09-15T14:02:45.179Z,2.20
2018-09-15T14:05:15.059Z,2.85
2018-09-15T14:07:44.362Z,2.85
2018-09-15T14:10:19.009Z,2.35
2018-09-15T14:12:42.249Z,2.60
2018-09-15T14:15:11.014Z,2.73
2018-09-15T14:17:39.996Z,2.53
2018-09-15T14:20:08.871Z,2.30
2018-09-15T14:22:38.654Z,2.52
2018-09-15T14:25:07.457Z,2.25
2018-09-15T14:27:36.295Z,2.50
2018-09-15T14:30:06.077Z,2.70
2018-09-15T14:32:35.079Z,2.33
2018-09-15T14:35:04.071Z,2.50
2018-09-15T14:37:32.969Z,2.17
2018-09-15T14:40:01.821Z,2.47
2018-09-15T14:42:30.654Z,2.25
2018-09-15T14:44:59.631Z,2.50
2018-09-15T14:47:28.564Z,2.67
2018-09-15T14:49:57.445Z,2.57
2018-09-15T14:52:26.286Z,2.50
2018-09-15T14:54:55.608Z,2.40
2018-09-15T14:57:24.399Z,2.10
2018-09-15T14:59:53.289Z,2.40
2018-09-15T15:02:22.355Z,2.40
2018-09-15T15:04:51.513Z,2.33
2018-09-15T15:07:20.371Z,2.25
2018-09-15T15:09:49.225Z,2.40
2018-09-15T15:12:18.076Z,2.50
2018-09-15T15:14:47.857Z,2.33
2018-09-15T15:17:17.051Z,2.60
2018-09-15T15:19:45.995Z,2.70
2018-09-15T15:22:14.812Z,2.50
2018-09-15T15:24:43.696Z,2.63
2018-09-15T15:27:12.469Z,2.65
2018-09-15T15:29:41.393Z,2.80
2018-09-15T15:32:10.406Z,2.30
2018-09-15T15:34:39.539Z,2.50
2018-09-15T15:37:08.577Z,2.30
2018-09-15T15:39:37.690Z,2.30
2018-09-15T15:42:06.656Z,2.20
2018-09-15T15:44:35.539Z,2.47
2018-09-15T15:47:04.333Z,2.20
2018-09-15T15:49:33.457Z,2.50
2018-09-15T15:52:02.554Z,2.80
2018-09-15T15:54:31.457Z,2.60
2018-09-15T15:57:00.267Z,2.30
2018-09-15T15:59:29.033Z,2.30
2018-09-15T16:01:58.021Z,2.30
2018-09-15T16:04:27.484Z,2.20
2018-09-15T16:06:56.203Z,2.50
2018-09-15T16:09:26.121Z,2.10
2018-09-15T16:11:55.029Z,2.20
2018-09-15T16:14:23.906Z,2.20
2018-09-15T16:16:52.655Z,2.30
2018-09-15T16:19:21.538Z,2.23
2018-09-15T16:21:50.367Z,2.27
2018-09-15T16:24:19.313Z,1.83
2018-09-15T16:26:49.015Z,2.13
2018-09-15T16:29:17.779Z,2.30
2018-09-15T16:31:46.625Z,2.10
2018-09-15T16:34:15.711Z,1.93
2018-09-15T16:36:44.839Z,2.03
2018-09-15T16:39:13.938Z,1.93
2018-09-15T16:41:42.773Z,2.10
2018-09-15T16:44:11.679Z,1.90
2018-09-15T16:46:40.707Z,2.00
2018-09-15T16:49:09.617Z,2.10
2018-09-15T16:51:38.906Z,2.00
2018-09-15T16:54:08.231Z,1.90
2018-09-15T16:56:37.763Z,2.10
2018-09-15T16:59:06.924Z,1.97
2018-09-15T17:01:35.763Z,1.93
2018-09-15T17:04:04.729Z,1.90
2018-09-15T17:06:33.662Z,1.90
2018-09-15T17:09:02.701Z,2.20
2018-09-15T17:11:31.499Z,2.20
2018-09-15T17:14:00.404Z,2.30
2018-09-15T17:16:29.290Z,2.30
2018-09-15T17:18:58.196Z,2.13
2018-09-15T17:21:27.151Z,2.00
2018-09-15T17:23:56.029Z,2.13
2018-09-15T17:26:24.912Z,2.10
2018-09-15T17:28:53.788Z,2.00
2018-09-15T17:31:22.756Z,2.23
2018-09-15T17:33:51.768Z,2.47
2018-09-15T17:36:20.570Z,2.27
2018-09-15T17:38:49.518Z,2.00
2018-09-15T17:41:18.628Z,2.10
2018-09-15T17:43:47.713Z,1.90
2018-09-15T17:46:16.668Z,2.00
2018-09-15T17:48:45.572Z,2.40
2018-09-15T17:51:14.378Z,2.00
2018-09-15T17:53:43.189Z,2.10
2018-09-15T17:56:12.304Z,2.13
2018-09-15T17:58:41.378Z,2.10
2018-09-15T18:01:10.202Z,2.20
2018-09-15T18:03:39.115Z,2.37
2018-09-15T18:06:08.072Z,2.30
2018-09-15T18:08:36.888Z,2.17
2018-09-15T18:11:06.082Z,2.13
2018-09-15T18:13:34.882Z,2.03
2018-09-15T18:16:03.800Z,2.27
2018-09-15T18:18:32.852Z,2.10
2018-09-15T18:21:01.774Z,2.50
2018-09-15T18:23:30.697Z,2.40
2018-09-15T18:25:59.494Z,2.63
2018-09-15T18:28:28.517Z,2.70
2018-09-15T18:30:57.348Z,2.80
2018-09-15T18:33:26.715Z,2.60
2018-09-15T18:35:55.665Z,2.73
2018-09-15T18:38:24.380Z,2.90
2018-09-15T18:40:53.356Z,3.13
2018-09-15T18:43:22.480Z,2.90
2018-09-15T18:45:51.312Z,2.90
2018-09-15T18:48:20.260Z,2.80
2018-09-15T18:50:49.207Z,2.70
2018-09-15T18:53:18.014Z,2.80
2018-09-15T18:55:47.880Z,2.73
2018-09-15T18:58:16.771Z,2.10
2018-09-15T19:00:45.784Z,2.87
2018-09-15T19:03:15.612Z,3.37
2018-09-15T19:05:45.977Z,4.20
2018-09-15T19:08:15.245Z,3.33
2018-09-15T19:10:44.337Z,3.13
2018-09-15T19:13:13.577Z,3.50
2018-09-15T19:15:42.611Z,2.80
2018-09-15T19:18:11.514Z,2.60
2018-09-15T19:20:40.443Z,2.80
2018-09-15T19:23:09.368Z,3.23
2018-09-15T19:25:38.331Z,4.13
2018-09-15T19:28:07.400Z,5.00
2018-09-15T19:30:36.276Z,4.33
2018-09-15T19:33:05.078Z,4.17
2018-09-15T19:35:33.890Z,4.73
2018-09-15T19:38:02.726Z,5.50
2018-09-15T19:40:31.524Z,4.90
2018-09-15T19:43:00.507Z,4.13
2018-09-15T19:45:29.422Z,3.40
2018-09-15T19:47:58.236Z,3.50
2018-09-15T19:50:27.064Z,2.87
2018-09-15T19:52:55.856Z,3.00
2018-09-15T19:55:24.734Z,2.80
2018-09-15T19:57:53.572Z,2.70
2018-09-15T20:00:22.478Z,2.70
2018-09-15T20:02:51.258Z,3.00
2018-09-15T20:05:20.035Z,2.70
2018-09-15T20:07:48.970Z,2.97
2018-09-15T20:10:17.817Z,2.90
2018-09-15T20:12:46.686Z,2.80
2018-09-15T20:15:23.413Z,2.73
2018-09-15T20:17:51.040Z,3.00
2018-09-15T20:20:18.865Z,3.00
2018-09-15T20:22:47.789Z,3.00
2018-09-15T20:25:16.696Z,3.27
2018-09-15T20:27:45.763Z,3.10
2018-09-15T20:30:14.848Z,3.10
2018-09-15T20:32:44.100Z,3.07
2018-09-15T20:35:13.018Z,3.10
2018-09-15T20:37:42.118Z,3.33
2018-09-15T20:40:11.268Z,3.17
2018-09-15T20:42:40.552Z,3.10
2018-09-15T20:45:09.786Z,3.17
2018-09-15T20:47:39.498Z,2.70
2018-09-15T20:50:08.837Z,3.10
2018-09-15T20:52:37.738Z,3.30
2018-09-15T20:55:07.272Z,3.27
2018-09-15T20:57:36.818Z,3.60
2018-09-15T21:00:07.284Z,3.00
2018-09-15T21:02:36.216Z,3.70
2018-09-15T21:05:05.340Z,3.60
2018-09-15T21:07:34.184Z,3.85
2018-09-15T21:10:03.030Z,3.87
2018-09-15T21:12:31.836Z,3.70
2018-09-15T21:15:00.657Z,3.53
2018-09-15T21:17:29.822Z,3.97
2018-09-15T21:19:58.595Z,3.47
2018-09-15T21:22:27.460Z,3.57
2018-09-15T21:24:56.311Z,3.40
2018-09-15T21:27:25.076Z,3.80
2018-09-15T21:30:03.932Z,3.67
2018-09-15T21:32:32.713Z,3.57
2018-09-15T21:35:01.600Z,4.03
2018-09-15T21:37:31.936Z,4.43
2018-09-15T21:40:01.040Z,4.07
2018-09-15T21:42:30.022Z,3.83
2018-09-15T21:44:58.863Z,3.70
2018-09-15T21:47:27.655Z,3.93
2018-09-15T21:49:56.466Z,3.73
2018-09-15T21:52:25.308Z,3.93
2018-09-15T21:54:54.095Z,4.60
2018-09-15T21:57:22.951Z,4.20
2018-09-15T21:59:51.781Z,5.00
2018-09-15T22:02:22.582Z,4.60
2018-09-15T22:04:52.094Z,4.80
2018-09-15T22:07:20.864Z,4.37
2018-09-15T22:09:49.921Z,4.50
2018-09-15T22:12:18.685Z,4.57
2018-09-15T22:14:47.466Z,4.97
2018-09-15T22:17:16.252Z,4.93
2018-09-15T22:19:45.168Z,5.10
2018-09-15T22:22:14.049Z,4.87
2018-09-15T22:24:42.803Z,5.57
2018-09-15T22:27:11.611Z,5.40
2018-09-15T22:29:40.429Z,5.40
2018-09-15T22:32:09.334Z,5.17
2018-09-15T22:34:38.299Z,5.10
2018-09-15T22:37:09.270Z,5.27
2018-09-15T22:39:38.141Z,5.10
2018-09-15T22:42:07.091Z,4.90
2018-09-15T22:44:35.932Z,4.87
2018-09-15T22:47:04.867Z,4.60
2018-09-15T22:49:33.693Z,4.57
2018-09-15T22:52:02.582Z,4.17
2018-09-15T22:54:31.434Z,4.73
2018-09-15T22:57:00.388Z,4.33
2018-09-15T22:59:29.246Z,4.70
2018-09-15T23:01:58.295Z,4.77
2018-09-15T23:04:27.224Z,4.67
2018-09-15T23:06:56.167Z,4.87
2018-09-15T23:09:25.235Z,5.30
2018-09-15T23:11:54.222Z,4.53
2018-09-15T23:14:23.089Z,4.83
2018-09-15T23:16:51.861Z,5.00
2018-09-15T23:19:20.615Z,4.73
2018-09-15T23:21:49.509Z,4.70
2018-09-15T23:24:18.375Z,5.33
2018-09-15T23:26:47.193Z,4.67
2018-09-15T23:29:15.970Z,5.07
2018-09-15T23:31:44.895Z,4.70
2018-09-15T23:34:13.703Z,4.80
2018-09-15T23:36:42.529Z,4.87
2018-09-15T23:39:11.655Z,4.97
2018-09-15T23:41:40.565Z,5.40
2018-09-15T23:44:09.413Z,5.33
2018-09-15T23:46:38.440Z,5.87
2018-09-15T23:49:07.193Z,5.10
2018-09-15T23:51:36.018Z,5.07
2018-09-15T23:54:04.803Z,5.23
2018-09-15T23:56:33.634Z,4.93
2018-09-15T23:59:02.623Z,4.80
